Pagina principală
METAR-TAF:

METAR-TAF

Aeroporturi :

Foggia, Italia

Latitudine: 41-32N, longitudine: 015-43E, elevație: 57 m

Observații meteo curente

Raportul a fost făcut în urmă cu 49 de minute, la 11:55 UTC
Vânt 11 kt de la Est
Temperatură 31°C
Umiditate 33%
Presiune 1010 hPa
Vizibilitate de 10 km sau mai mult
nu există nori sub 1.500 m și nici cumulonimbus

METAR: LIBA 161155Z 08011KT CAVOK 31/13 Q1010 RMK SKC VIS MIN 9999 WIND THR11 09010KT WIND THR29 /////KT BLU

Ora: 14:44 (12:44 UTC)

Prognoză

Raportul a fost făcut în urmă cu 1 oră și 44 de minute, la 11:00 UTC
Prognoză valabilă de la 16 ora 12 UTC la 16 ora 21 UTC
Vânt 18 kt de la Est
Vizibilitate de 10 km sau mai mult
Nori puțini la o înălțime de 5000 picior

TAF: LIBA 161100Z 1612/1621 09018KT 9999 FEW050

Observații și prognoze meteo pentru peste 4.000 de aeroporturi (rapoarte METAR și TAF).

Stațiile disponibile sunt reprezentate pe hartă prin puncte galbene și roșii.

Țineți indicatorul mouse-ului pe punctul dorit pentru a vedea denumirea stației.

Apoi, faceți clic pentru a vedea observațiile și prognozele meteorologice.

Pentru a schimba harta: Pentru mărire, faceți clic pe butoanele verzi cu cruce neagră; pentru micșorare, pe butonul verde cu o liniuță; pentru hărți învecinate, pe săgețile verzi.


METAR-TAF: